sensor_id;sensor_type;location;lat;lon;timestamp;P1;durP1;ratioP1;P2;durP2;ratioP2
50954;SDS011;36966;48.064;-0.792;2023-02-28T00:00:29;2.78;;;1.77;;
50954;SDS011;36966;48.064;-0.792;2023-02-28T00:02:48;5.78;;;1.95;;
50954;SDS011;36966;48.064;-0.792;2023-02-28T00:05:08;3.95;;;1.42;;
50954;SDS011;36966;48.064;-0.792;2023-02-28T00:07:29;3.83;;;2.03;;
50954;SDS011;36966;48.064;-0.792;2023-02-28T00:09:48;3.72;;;2.03;;
50954;SDS011;36966;48.064;-0.792;2023-02-28T00:12:08;3.58;;;2.22;;
50954;SDS011;36966;48.064;-0.792;2023-02-28T00:14:29;4.65;;;2.47;;
50954;SDS011;36966;48.064;-0.792;2023-02-28T00:16:49;3.55;;;1.48;;
50954;SDS011;36966;48.064;-0.792;2023-02-28T00:19:08;3.85;;;1.88;;
50954;SDS011;36966;48.064;-0.792;2023-02-28T00:21:28;4.60;;;2.17;;
50954;SDS011;36966;48.064;-0.792;2023-02-28T00:23:47;4.97;;;2.50;;
50954;SDS011;36966;48.064;-0.792;2023-02-28T00:26:07;3.83;;;2.15;;
50954;SDS011;36966;48.064;-0.792;2023-02-28T00:28:26;2.65;;;1.60;;
50954;SDS011;36966;48.064;-0.792;2023-02-28T00:30:45;4.35;;;2.05;;
50954;SDS011;36966;48.064;-0.792;2023-02-28T00:33:05;4.15;;;2.05;;
50954;SDS011;36966;48.064;-0.792;2023-02-28T00:35:24;4.68;;;1.95;;
50954;SDS011;36966;48.064;-0.792;2023-02-28T00:37:43;3.42;;;1.95;;
50954;SDS011;36966;48.064;-0.792;2023-02-28T00:40:03;5.75;;;2.47;;
50954;SDS011;36966;48.064;-0.792;2023-02-28T00:42:26;5.32;;;2.33;;
50954;SDS011;36966;48.064;-0.792;2023-02-28T00:44:46;4.15;;;2.10;;
50954;SDS011;36966;48.064;-0.792;2023-02-28T00:47:05;5.28;;;1.90;;
50954;SDS011;36966;48.064;-0.792;2023-02-28T00:49:24;4.60;;;1.67;;
50954;SDS011;36966;48.064;-0.792;2023-02-28T00:51:44;5.95;;;1.90;;
50954;SDS011;36966;48.064;-0.792;2023-02-28T00:54:04;4.15;;;2.40;;
50954;SDS011;36966;48.064;-0.792;2023-02-28T00:56:23;4.05;;;2.08;;
50954;SDS011;36966;48.064;-0.792;2023-02-28T00:58:42;3.90;;;1.90;;
50954;SDS011;36966;48.064;-0.792;2023-02-28T01:01:01;5.13;;;1.95;;
50954;SDS011;36966;48.064;-0.792;2023-02-28T01:03:21;9.77;;;2.72;;
50954;SDS011;36966;48.064;-0.792;2023-02-28T01:05:41;5.30;;;2.58;;
50954;SDS011;36966;48.064;-0.792;2023-02-28T01:08:00;4.25;;;2.03;;
50954;SDS011;36966;48.064;-0.792;2023-02-28T01:10:19;4.95;;;2.40;;
50954;SDS011;36966;48.064;-0.792;2023-02-28T01:12:39;3.15;;;1.38;;
50954;SDS011;36966;48.064;-0.792;2023-02-28T01:14:58;4.68;;;2.17;;
50954;SDS011;36966;48.064;-0.792;2023-02-28T01:17:17;3.63;;;1.75;;
50954;SDS011;36966;48.064;-0.792;2023-02-28T01:19:36;3.72;;;1.75;;
50954;SDS011;36966;48.064;-0.792;2023-02-28T01:21:56;3.63;;;2.20;;
50954;SDS011;36966;48.064;-0.792;2023-02-28T01:24:15;5.43;;;2.13;;
50954;SDS011;36966;48.064;-0.792;2023-02-28T01:26:34;2.88;;;1.98;;
50954;SDS011;36966;48.064;-0.792;2023-02-28T01:28:54;2.70;;;1.80;;
50954;SDS011;36966;48.064;-0.792;2023-02-28T01:31:13;5.95;;;2.28;;
50954;SDS011;36966;48.064;-0.792;2023-02-28T01:33:33;8.20;;;2.25;;
50954;SDS011;36966;48.064;-0.792;2023-02-28T01:36:00;4.75;;;2.38;;
50954;SDS011;36966;48.064;-0.792;2023-02-28T01:38:24;8.75;;;2.38;;
50954;SDS011;36966;48.064;-0.792;2023-02-28T01:40:43;3.03;;;1.95;;
50954;SDS011;36966;48.064;-0.792;2023-02-28T01:43:02;4.90;;;2.30;;
50954;SDS011;36966;48.064;-0.792;2023-02-28T01:45:27;3.20;;;2.00;;
50954;SDS011;36966;48.064;-0.792;2023-02-28T01:47:50;4.65;;;2.28;;
50954;SDS011;36966;48.064;-0.792;2023-02-28T01:50:14;3.30;;;2.10;;
50954;SDS011;36966;48.064;-0.792;2023-02-28T01:52:37;4.30;;;2.03;;
50954;SDS011;36966;48.064;-0.792;2023-02-28T01:54:57;4.80;;;1.98;;
50954;SDS011;36966;48.064;-0.792;2023-02-28T01:57:19;3.60;;;1.95;;
50954;SDS011;36966;48.064;-0.792;2023-02-28T01:59:54;4.43;;;2.05;;
50954;SDS011;36966;48.064;-0.792;2023-02-28T02:02:17;7.45;;;2.58;;
50954;SDS011;36966;48.064;-0.792;2023-02-28T02:04:40;5.05;;;1.65;;
50954;SDS011;36966;48.064;-0.792;2023-02-28T02:07:08;2.85;;;1.73;;
50954;SDS011;36966;48.064;-0.792;2023-02-28T02:09:29;6.47;;;1.60;;
50954;SDS011;36966;48.064;-0.792;2023-02-28T02:11:48;5.88;;;1.90;;
50954;SDS011;36966;48.064;-0.792;2023-02-28T02:24:48;3.88;;;2.03;;
50954;SDS011;36966;48.064;-0.792;2023-02-28T02:30:44;6.20;;;2.28;;
50954;SDS011;36966;48.064;-0.792;2023-02-28T02:32:55;3.80;;;1.77;;
50954;SDS011;36966;48.064;-0.792;2023-02-28T02:38:20;5.53;;;2.20;;
50954;SDS011;36966;48.064;-0.792;2023-02-28T02:43:34;3.60;;;1.67;;
50954;SDS011;36966;48.064;-0.792;2023-02-28T02:46:42;5.20;;;1.38;;
50954;SDS011;36966;48.064;-0.792;2023-02-28T02:49:05;6.55;;;2.08;;
50954;SDS011;36966;48.064;-0.792;2023-02-28T02:51:27;4.72;;;1.90;;
50954;SDS011;36966;48.064;-0.792;2023-02-28T02:53:55;5.38;;;1.60;;
50954;SDS011;36966;48.064;-0.792;2023-02-28T02:56:19;4.50;;;1.95;;
50954;SDS011;36966;48.064;-0.792;2023-02-28T02:58:43;4.30;;;2.25;;
50954;SDS011;36966;48.064;-0.792;2023-02-28T03:01:03;7.03;;;2.40;;
50954;SDS011;36966;48.064;-0.792;2023-02-28T03:03:23;2.88;;;1.83;;
50954;SDS011;36966;48.064;-0.792;2023-02-28T03:05:50;4.07;;;1.90;;
50954;SDS011;36966;48.064;-0.792;2023-02-28T03:08:09;3.40;;;1.60;;
50954;SDS011;36966;48.064;-0.792;2023-02-28T03:10:39;4.30;;;1.75;;
50954;SDS011;36966;48.064;-0.792;2023-02-28T03:15:28;4.68;;;1.98;;
50954;SDS011;36966;48.064;-0.792;2023-02-28T03:18:10;3.22;;;1.67;;
50954;SDS011;36966;48.064;-0.792;2023-02-28T03:23:38;4.18;;;2.05;;
50954;SDS011;36966;48.064;-0.792;2023-02-28T03:26:20;6.20;;;2.20;;
50954;SDS011;36966;48.064;-0.792;2023-02-28T03:28:49;3.60;;;2.35;;
50954;SDS011;36966;48.064;-0.792;2023-02-28T03:31:41;3.72;;;1.75;;
50954;SDS011;36966;48.064;-0.792;2023-02-28T03:34:16;3.97;;;2.10;;
50954;SDS011;36966;48.064;-0.792;2023-02-28T03:36:41;2.38;;;1.38;;
50954;SDS011;36966;48.064;-0.792;2023-02-28T03:39:07;5.55;;;2.25;;
50954;SDS011;36966;48.064;-0.792;2023-02-28T03:41:32;4.97;;;1.90;;
50954;SDS011;36966;48.064;-0.792;2023-02-28T03:43:58;5.57;;;2.55;;
50954;SDS011;36966;48.064;-0.792;2023-02-28T03:46:35;2.95;;;1.55;;
50954;SDS011;36966;48.064;-0.792;2023-02-28T03:48:59;2.33;;;1.70;;
50954;SDS011;36966;48.064;-0.792;2023-02-28T03:51:30;4.70;;;1.77;;
50954;SDS011;36966;48.064;-0.792;2023-02-28T03:53:57;2.53;;;1.67;;
50954;SDS011;36966;48.064;-0.792;2023-02-28T04:01:41;8.50;;;1.73;;
50954;SDS011;36966;48.064;-0.792;2023-02-28T04:04:03;4.07;;;2.42;;
50954;SDS011;36966;48.064;-0.792;2023-02-28T04:06:23;4.85;;;2.00;;
50954;SDS011;36966;48.064;-0.792;2023-02-28T04:08:43;3.67;;;2.33;;
50954;SDS011;36966;48.064;-0.792;2023-02-28T04:11:06;6.45;;;2.22;;
50954;SDS011;36966;48.064;-0.792;2023-02-28T04:13:42;3.22;;;2.10;;
50954;SDS011;36966;48.064;-0.792;2023-02-28T04:16:02;3.45;;;2.22;;
50954;SDS011;36966;48.064;-0.792;2023-02-28T04:18:30;4.22;;;2.08;;
50954;SDS011;36966;48.064;-0.792;2023-02-28T04:20:49;3.33;;;1.98;;
50954;SDS011;36966;48.064;-0.792;2023-02-28T04:23:09;5.53;;;2.08;;
50954;SDS011;36966;48.064;-0.792;2023-02-28T04:25:28;4.38;;;2.00;;
50954;SDS011;36966;48.064;-0.792;2023-02-28T04:27:47;3.65;;;2.22;;
50954;SDS011;36966;48.064;-0.792;2023-02-28T04:30:06;4.07;;;2.55;;
50954;SDS011;36966;48.064;-0.792;2023-02-28T04:32:26;5.18;;;2.00;;
50954;SDS011;36966;48.064;-0.792;2023-02-28T04:34:46;2.95;;;2.08;;
50954;SDS011;36966;48.064;-0.792;2023-02-28T04:37:05;4.07;;;1.88;;
50954;SDS011;36966;48.064;-0.792;2023-02-28T04:39:24;2.55;;;1.95;;
50954;SDS011;36966;48.064;-0.792;2023-02-28T04:41:44;3.75;;;2.35;;
50954;SDS011;36966;48.064;-0.792;2023-02-28T04:44:04;7.30;;;2.30;;
50954;SDS011;36966;48.064;-0.792;2023-02-28T04:46:23;4.07;;;2.17;;
50954;SDS011;36966;48.064;-0.792;2023-02-28T04:48:42;5.45;;;2.90;;
50954;SDS011;36966;48.064;-0.792;2023-02-28T04:51:04;5.22;;;2.28;;
50954;SDS011;36966;48.064;-0.792;2023-02-28T04:55:47;6.85;;;2.55;;
50954;SDS011;36966;48.064;-0.792;2023-02-28T04:58:06;3.90;;;2.15;;
50954;SDS011;36966;48.064;-0.792;2023-02-28T05:00:25;3.75;;;1.98;;
50954;SDS011;36966;48.064;-0.792;2023-02-28T05:02:45;6.93;;;1.83;;
50954;SDS011;36966;48.064;-0.792;2023-02-28T05:05:04;7.53;;;2.38;;
50954;SDS011;36966;48.064;-0.792;2023-02-28T05:07:23;5.75;;;2.35;;
50954;SDS011;36966;48.064;-0.792;2023-02-28T05:09:43;5.88;;;2.40;;
50954;SDS011;36966;48.064;-0.792;2023-02-28T05:12:03;6.38;;;2.60;;
50954;SDS011;36966;48.064;-0.792;2023-02-28T05:14:22;4.00;;;2.53;;
50954;SDS011;36966;48.064;-0.792;2023-02-28T05:16:41;7.57;;;3.15;;
50954;SDS011;36966;48.064;-0.792;2023-02-28T05:19:01;5.07;;;2.83;;
50954;SDS011;36966;48.064;-0.792;2023-02-28T05:21:40;6.38;;;2.60;;
50954;SDS011;36966;48.064;-0.792;2023-02-28T05:24:04;5.40;;;2.60;;
50954;SDS011;36966;48.064;-0.792;2023-02-28T05:26:26;5.20;;;2.55;;
50954;SDS011;36966;48.064;-0.792;2023-02-28T05:28:46;4.20;;;3.10;;
50954;SDS011;36966;48.064;-0.792;2023-02-28T05:31:05;8.18;;;3.20;;
50954;SDS011;36966;48.064;-0.792;2023-02-28T05:33:25;6.03;;;2.58;;
50954;SDS011;36966;48.064;-0.792;2023-02-28T05:35:44;4.90;;;3.10;;
50954;SDS011;36966;48.064;-0.792;2023-02-28T05:38:03;5.43;;;2.33;;
50954;SDS011;36966;48.064;-0.792;2023-02-28T05:40:22;3.80;;;2.47;;
50954;SDS011;36966;48.064;-0.792;2023-02-28T05:42:41;9.52;;;3.28;;
50954;SDS011;36966;48.064;-0.792;2023-02-28T05:45:01;4.68;;;3.13;;
50954;SDS011;36966;48.064;-0.792;2023-02-28T05:47:20;3.40;;;2.90;;
50954;SDS011;36966;48.064;-0.792;2023-02-28T05:49:39;7.10;;;3.03;;
50954;SDS011;36966;48.064;-0.792;2023-02-28T05:51:59;3.75;;;2.38;;
50954;SDS011;36966;48.064;-0.792;2023-02-28T05:54:18;3.30;;;2.45;;
50954;SDS011;36966;48.064;-0.792;2023-02-28T05:56:37;6.60;;;2.90;;
50954;SDS011;36966;48.064;-0.792;2023-02-28T05:58:58;4.60;;;3.03;;
50954;SDS011;36966;48.064;-0.792;2023-02-28T06:03:53;6.18;;;2.85;;
50954;SDS011;36966;48.064;-0.792;2023-02-28T06:06:13;5.95;;;3.28;;
50954;SDS011;36966;48.064;-0.792;2023-02-28T06:08:32;4.20;;;2.88;;
50954;SDS011;36966;48.064;-0.792;2023-02-28T06:10:51;6.13;;;3.20;;
50954;SDS011;36966;48.064;-0.792;2023-02-28T06:13:10;6.85;;;2.72;;
50954;SDS011;36966;48.064;-0.792;2023-02-28T06:15:31;6.47;;;3.22;;
50954;SDS011;36966;48.064;-0.792;2023-02-28T06:17:51;4.03;;;2.80;;
50954;SDS011;36966;48.064;-0.792;2023-02-28T06:20:11;4.35;;;2.50;;
50954;SDS011;36966;48.064;-0.792;2023-02-28T06:22:31;5.35;;;3.13;;
50954;SDS011;36966;48.064;-0.792;2023-02-28T06:24:50;4.35;;;2.72;;
50954;SDS011;36966;48.064;-0.792;2023-02-28T06:27:11;9.45;;;3.15;;
50954;SDS011;36966;48.064;-0.792;2023-02-28T06:29:31;5.30;;;2.88;;
50954;SDS011;36966;48.064;-0.792;2023-02-28T06:31:51;5.07;;;2.80;;
50954;SDS011;36966;48.064;-0.792;2023-02-28T06:34:10;5.47;;;2.92;;
50954;SDS011;36966;48.064;-0.792;2023-02-28T06:36:31;4.70;;;3.05;;
50954;SDS011;36966;48.064;-0.792;2023-02-28T06:38:50;4.38;;;3.13;;
50954;SDS011;36966;48.064;-0.792;2023-02-28T06:41:13;4.32;;;3.28;;
50954;SDS011;36966;48.064;-0.792;2023-02-28T06:43:36;5.47;;;3.03;;
50954;SDS011;36966;48.064;-0.792;2023-02-28T06:45:58;3.80;;;3.03;;
50954;SDS011;36966;48.064;-0.792;2023-02-28T06:48:19;3.25;;;2.60;;
50954;SDS011;36966;48.064;-0.792;2023-02-28T06:50:38;8.10;;;3.50;;
50954;SDS011;36966;48.064;-0.792;2023-02-28T06:52:57;6.65;;;3.80;;
50954;SDS011;36966;48.064;-0.792;2023-02-28T06:55:16;4.78;;;2.88;;
50954;SDS011;36966;48.064;-0.792;2023-02-28T06:57:36;9.18;;;3.35;;
50954;SDS011;36966;48.064;-0.792;2023-02-28T06:59:57;7.18;;;4.10;;
50954;SDS011;36966;48.064;-0.792;2023-02-28T07:02:17;7.00;;;3.83;;
50954;SDS011;36966;48.064;-0.792;2023-02-28T07:04:37;8.20;;;3.92;;
50954;SDS011;36966;48.064;-0.792;2023-02-28T07:07:02;7.20;;;3.88;;
50954;SDS011;36966;48.064;-0.792;2023-02-28T07:09:21;6.20;;;3.47;;
50954;SDS011;36966;48.064;-0.792;2023-02-28T07:11:40;5.80;;;3.60;;
50954;SDS011;36966;48.064;-0.792;2023-02-28T07:14:00;6.63;;;3.83;;
50954;SDS011;36966;48.064;-0.792;2023-02-28T07:16:19;5.60;;;3.88;;
50954;SDS011;36966;48.064;-0.792;2023-02-28T07:18:39;7.75;;;4.03;;
50954;SDS011;36966;48.064;-0.792;2023-02-28T07:21:01;5.47;;;4.05;;
50954;SDS011;36966;48.064;-0.792;2023-02-28T07:23:21;6.05;;;4.05;;
50954;SDS011;36966;48.064;-0.792;2023-02-28T07:25:41;6.55;;;4.70;;
50954;SDS011;36966;48.064;-0.792;2023-02-28T07:28:00;7.47;;;4.40;;
50954;SDS011;36966;48.064;-0.792;2023-02-28T07:30:20;10.48;;;5.13;;
50954;SDS011;36966;48.064;-0.792;2023-02-28T07:32:39;8.93;;;4.95;;
50954;SDS011;36966;48.064;-0.792;2023-02-28T07:34:59;6.82;;;3.92;;
50954;SDS011;36966;48.064;-0.792;2023-02-28T07:37:18;7.75;;;3.67;;
50954;SDS011;36966;48.064;-0.792;2023-02-28T07:39:37;5.72;;;4.35;;
50954;SDS011;36966;48.064;-0.792;2023-02-28T07:41:56;11.70;;;4.50;;
50954;SDS011;36966;48.064;-0.792;2023-02-28T07:44:15;8.63;;;4.43;;
50954;SDS011;36966;48.064;-0.792;2023-02-28T07:46:34;7.60;;;4.00;;
50954;SDS011;36966;48.064;-0.792;2023-02-28T07:48:54;6.88;;;4.38;;
50954;SDS011;36966;48.064;-0.792;2023-02-28T07:51:18;7.55;;;4.20;;
50954;SDS011;36966;48.064;-0.792;2023-02-28T07:53:37;7.95;;;4.15;;
50954;SDS011;36966;48.064;-0.792;2023-02-28T07:55:57;6.60;;;4.63;;
50954;SDS011;36966;48.064;-0.792;2023-02-28T07:58:17;10.30;;;4.78;;
50954;SDS011;36966;48.064;-0.792;2023-02-28T08:00:36;8.57;;;5.15;;
50954;SDS011;36966;48.064;-0.792;2023-02-28T08:02:55;8.60;;;3.95;;
50954;SDS011;36966;48.064;-0.792;2023-02-28T08:05:15;6.40;;;4.53;;
50954;SDS011;36966;48.064;-0.792;2023-02-28T08:07:35;6.47;;;4.80;;
50954;SDS011;36966;48.064;-0.792;2023-02-28T08:09:54;10.95;;;4.20;;
50954;SDS011;36966;48.064;-0.792;2023-02-28T08:12:13;8.27;;;4.60;;
50954;SDS011;36966;48.064;-0.792;2023-02-28T08:14:33;6.28;;;4.40;;
50954;SDS011;36966;48.064;-0.792;2023-02-28T08:16:54;7.65;;;4.93;;
50954;SDS011;36966;48.064;-0.792;2023-02-28T08:19:13;7.88;;;5.10;;
50954;SDS011;36966;48.064;-0.792;2023-02-28T08:21:32;7.55;;;4.57;;
50954;SDS011;36966;48.064;-0.792;2023-02-28T08:23:51;9.13;;;4.38;;
50954;SDS011;36966;48.064;-0.792;2023-02-28T08:26:11;10.50;;;5.30;;
50954;SDS011;36966;48.064;-0.792;2023-02-28T08:28:30;9.32;;;5.55;;
50954;SDS011;36966;48.064;-0.792;2023-02-28T08:30:50;7.25;;;4.88;;
50954;SDS011;36966;48.064;-0.792;2023-02-28T08:33:09;7.75;;;4.90;;
50954;SDS011;36966;48.064;-0.792;2023-02-28T08:35:28;7.47;;;4.22;;
50954;SDS011;36966;48.064;-0.792;2023-02-28T08:37:48;9.20;;;4.88;;
50954;SDS011;36966;48.064;-0.792;2023-02-28T08:40:08;8.45;;;4.63;;
50954;SDS011;36966;48.064;-0.792;2023-02-28T08:42:27;6.70;;;4.07;;
50954;SDS011;36966;48.064;-0.792;2023-02-28T08:44:47;9.75;;;5.07;;
50954;SDS011;36966;48.064;-0.792;2023-02-28T08:47:06;9.25;;;5.00;;
50954;SDS011;36966;48.064;-0.792;2023-02-28T08:49:25;7.35;;;4.88;;
50954;SDS011;36966;48.064;-0.792;2023-02-28T08:51:44;10.20;;;4.65;;
50954;SDS011;36966;48.064;-0.792;2023-02-28T08:54:04;9.05;;;4.50;;
50954;SDS011;36966;48.064;-0.792;2023-02-28T08:56:24;9.25;;;4.40;;
50954;SDS011;36966;48.064;-0.792;2023-02-28T08:58:43;11.73;;;4.70;;
50954;SDS011;36966;48.064;-0.792;2023-02-28T09:01:08;9.95;;;5.00;;
50954;SDS011;36966;48.064;-0.792;2023-02-28T09:03:28;7.77;;;5.00;;
50954;SDS011;36966;48.064;-0.792;2023-02-28T09:05:57;11.68;;;5.07;;
50954;SDS011;36966;48.064;-0.792;2023-02-28T09:08:19;5.97;;;4.47;;
50954;SDS011;36966;48.064;-0.792;2023-02-28T09:10:39;4.20;;;3.35;;
50954;SDS011;36966;48.064;-0.792;2023-02-28T09:12:58;6.00;;;3.88;;
50954;SDS011;36966;48.064;-0.792;2023-02-28T09:15:17;6.63;;;3.75;;
50954;SDS011;36966;48.064;-0.792;2023-02-28T09:17:36;6.97;;;3.83;;
50954;SDS011;36966;48.064;-0.792;2023-02-28T09:19:56;6.03;;;3.47;;
50954;SDS011;36966;48.064;-0.792;2023-02-28T09:22:16;5.40;;;3.80;;
50954;SDS011;36966;48.064;-0.792;2023-02-28T09:24:35;7.50;;;4.40;;
50954;SDS011;36966;48.064;-0.792;2023-02-28T09:26:55;7.13;;;3.60;;
50954;SDS011;36966;48.064;-0.792;2023-02-28T09:29:15;6.40;;;3.63;;
50954;SDS011;36966;48.064;-0.792;2023-02-28T09:31:35;8.00;;;3.85;;
50954;SDS011;36966;48.064;-0.792;2023-02-28T09:33:57;9.40;;;3.30;;
50954;SDS011;36966;48.064;-0.792;2023-02-28T09:36:17;4.95;;;3.17;;
50954;SDS011;36966;48.064;-0.792;2023-02-28T09:38:37;7.93;;;3.55;;
50954;SDS011;36966;48.064;-0.792;2023-02-28T09:40:58;6.53;;;3.15;;
50954;SDS011;36966;48.064;-0.792;2023-02-28T09:43:20;6.85;;;3.53;;
50954;SDS011;36966;48.064;-0.792;2023-02-28T09:45:46;6.87;;;3.33;;
50954;SDS011;36966;48.064;-0.792;2023-02-28T09:48:12;4.55;;;2.55;;
50954;SDS011;36966;48.064;-0.792;2023-02-28T09:50:40;8.07;;;3.10;;
50954;SDS011;36966;48.064;-0.792;2023-02-28T09:53:38;2.97;;;2.50;;
50954;SDS011;36966;48.064;-0.792;2023-02-28T09:55:55;5.05;;;2.75;;
50954;SDS011;36966;48.064;-0.792;2023-02-28T09:58:20;5.00;;;3.23;;
50954;SDS011;36966;48.064;-0.792;2023-02-28T10:00:44;4.78;;;2.97;;
50954;SDS011;36966;48.064;-0.792;2023-02-28T10:05:51;3.97;;;2.83;;
50954;SDS011;36966;48.064;-0.792;2023-02-28T10:08:16;7.68;;;3.20;;
50954;SDS011;36966;48.064;-0.792;2023-02-28T10:10:45;4.72;;;2.47;;
50954;SDS011;36966;48.064;-0.792;2023-02-28T10:13:13;4.75;;;2.63;;
50954;SDS011;36966;48.064;-0.792;2023-02-28T10:15:41;5.57;;;2.78;;
50954;SDS011;36966;48.064;-0.792;2023-02-28T10:18:06;4.32;;;2.45;;
50954;SDS011;36966;48.064;-0.792;2023-02-28T10:20:33;5.72;;;2.30;;
50954;SDS011;36966;48.064;-0.792;2023-02-28T10:25:19;6.10;;;2.42;;
50954;SDS011;36966;48.064;-0.792;2023-02-28T10:27:41;4.57;;;2.72;;
50954;SDS011;36966;48.064;-0.792;2023-02-28T10:30:01;2.88;;;2.13;;
50954;SDS011;36966;48.064;-0.792;2023-02-28T10:32:26;4.22;;;2.50;;
50954;SDS011;36966;48.064;-0.792;2023-02-28T10:35:32;8.07;;;2.40;;
50954;SDS011;36966;48.064;-0.792;2023-02-28T10:37:32;4.32;;;3.03;;
50954;SDS011;36966;48.064;-0.792;2023-02-28T10:39:56;4.88;;;3.10;;
50954;SDS011;36966;48.064;-0.792;2023-02-28T10:44:40;4.65;;;2.28;;
50954;SDS011;36966;48.064;-0.792;2023-02-28T10:46:59;4.97;;;2.90;;
50954;SDS011;36966;48.064;-0.792;2023-02-28T10:51:39;4.20;;;2.03;;
50954;SDS011;36966;48.064;-0.792;2023-02-28T10:54:00;4.60;;;2.05;;
50954;SDS011;36966;48.064;-0.792;2023-02-28T10:56:23;6.95;;;2.03;;
50954;SDS011;36966;48.064;-0.792;2023-02-28T11:01:22;2.58;;;1.33;;
50954;SDS011;36966;48.064;-0.792;2023-02-28T11:03:42;2.70;;;2.00;;
50954;SDS011;36966;48.064;-0.792;2023-02-28T11:06:05;3.63;;;1.85;;
50954;SDS011;36966;48.064;-0.792;2023-02-28T11:08:27;2.90;;;1.90;;
50954;SDS011;36966;48.064;-0.792;2023-02-28T11:10:46;4.05;;;1.80;;
50954;SDS011;36966;48.064;-0.792;2023-02-28T11:13:19;2.40;;;1.48;;
50954;SDS011;36966;48.064;-0.792;2023-02-28T11:15:41;5.15;;;2.20;;
50954;SDS011;36966;48.064;-0.792;2023-02-28T11:20:32;4.20;;;1.13;;
50954;SDS011;36966;48.064;-0.792;2023-02-28T11:22:53;3.55;;;1.60;;
50954;SDS011;36966;48.064;-0.792;2023-02-28T11:28:06;2.92;;;1.20;;
50954;SDS011;36966;48.064;-0.792;2023-02-28T11:30:43;4.43;;;1.95;;
50954;SDS011;36966;48.064;-0.792;2023-02-28T11:35:39;1.92;;;1.15;;
50954;SDS011;36966;48.064;-0.792;2023-02-28T11:37:59;3.25;;;1.90;;
50954;SDS011;36966;48.064;-0.792;2023-02-28T11:40:21;4.03;;;1.80;;
50954;SDS011;36966;48.064;-0.792;2023-02-28T11:43:00;2.63;;;1.45;;
50954;SDS011;36966;48.064;-0.792;2023-02-28T11:48:32;4.95;;;1.67;;
50954;SDS011;36966;48.064;-0.792;2023-02-28T11:51:18;2.80;;;1.42;;
50954;SDS011;36966;48.064;-0.792;2023-02-28T11:56:51;2.42;;;1.60;;
50954;SDS011;36966;48.064;-0.792;2023-02-28T12:06:43;3.50;;;1.73;;
50954;SDS011;36966;48.064;-0.792;2023-02-28T12:09:43;5.03;;;1.75;;
50954;SDS011;36966;48.064;-0.792;2023-02-28T12:17:28;2.92;;;1.95;;
50954;SDS011;36966;48.064;-0.792;2023-02-28T12:22:29;3.58;;;2.00;;
50954;SDS011;36966;48.064;-0.792;2023-02-28T12:27:46;6.32;;;2.10;;
50954;SDS011;36966;48.064;-0.792;2023-02-28T12:33:09;4.60;;;2.58;;
50954;SDS011;36966;48.064;-0.792;2023-02-28T12:35:34;3.70;;;1.88;;
50954;SDS011;36966;48.064;-0.792;2023-02-28T12:38:10;4.20;;;1.77;;
50954;SDS011;36966;48.064;-0.792;2023-02-28T12:40:50;3.58;;;1.50;;
50954;SDS011;36966;48.064;-0.792;2023-02-28T12:43:12;3.60;;;1.95;;
50954;SDS011;36966;48.064;-0.792;2023-02-28T12:45:55;5.65;;;2.20;;
50954;SDS011;36966;48.064;-0.792;2023-02-28T12:48:40;3.25;;;1.98;;
50954;SDS011;36966;48.064;-0.792;2023-02-28T12:50:57;3.40;;;2.15;;
50954;SDS011;36966;48.064;-0.792;2023-02-28T12:53:30;3.22;;;1.80;;
50954;SDS011;36966;48.064;-0.792;2023-02-28T13:03:59;2.28;;;1.00;;
50954;SDS011;36966;48.064;-0.792;2023-02-28T13:09:10;2.50;;;1.33;;
50954;SDS011;36966;48.064;-0.792;2023-02-28T13:11:33;3.08;;;1.40;;
50954;SDS011;36966;48.064;-0.792;2023-02-28T13:14:03;2.15;;;1.45;;
50954;SDS011;36966;48.064;-0.792;2023-02-28T13:16:24;3.53;;;1.25;;
50954;SDS011;36966;48.064;-0.792;2023-02-28T13:18:44;6.40;;;1.83;;
50954;SDS011;36966;48.064;-0.792;2023-02-28T13:21:09;2.17;;;1.13;;
50954;SDS011;36966;48.064;-0.792;2023-02-28T13:26:17;2.22;;;1.00;;
50954;SDS011;36966;48.064;-0.792;2023-02-28T13:31:14;1.85;;;0.90;;
50954;SDS011;36966;48.064;-0.792;2023-02-28T13:33:36;2.13;;;1.05;;
50954;SDS011;36966;48.064;-0.792;2023-02-28T13:38:49;2.47;;;1.23;;
50954;SDS011;36966;48.064;-0.792;2023-02-28T13:46:26;3.30;;;1.13;;
50954;SDS011;36966;48.064;-0.792;2023-02-28T13:48:45;1.58;;;0.75;;
50954;SDS011;36966;48.064;-0.792;2023-02-28T13:54:07;1.38;;;0.60;;
50954;SDS011;36966;48.064;-0.792;2023-02-28T13:57:01;1.77;;;1.00;;
50954;SDS011;36966;48.064;-0.792;2023-02-28T14:07:36;1.58;;;0.70;;
50954;SDS011;36966;48.064;-0.792;2023-02-28T14:10:06;1.30;;;0.90;;
50954;SDS011;36966;48.064;-0.792;2023-02-28T14:15:25;2.83;;;0.98;;
50954;SDS011;36966;48.064;-0.792;2023-02-28T14:17:52;2.35;;;0.63;;
50954;SDS011;36966;48.064;-0.792;2023-02-28T14:20:16;1.60;;;0.60;;
50954;SDS011;36966;48.064;-0.792;2023-02-28T14:25:09;2.28;;;0.70;;
50954;SDS011;36966;48.064;-0.792;2023-02-28T14:33:08;1.80;;;0.80;;
50954;SDS011;36966;48.064;-0.792;2023-02-28T14:38:32;0.82;;;0.63;;
50954;SDS011;36966;48.064;-0.792;2023-02-28T14:41:00;1.55;;;0.60;;
50954;SDS011;36966;48.064;-0.792;2023-02-28T14:43:25;0.95;;;0.60;;
50954;SDS011;36966;48.064;-0.792;2023-02-28T14:45:49;1.65;;;0.82;;
50954;SDS011;36966;48.064;-0.792;2023-02-28T14:48:20;1.55;;;0.43;;
50954;SDS011;36966;48.064;-0.792;2023-02-28T14:50:41;4.30;;;1.00;;
50954;SDS011;36966;48.064;-0.792;2023-02-28T14:53:15;2.45;;;0.88;;
50954;SDS011;36966;48.064;-0.792;2023-02-28T14:55:43;3.25;;;1.58;;
50954;SDS011;36966;48.064;-0.792;2023-02-28T14:58:04;3.50;;;1.00;;
50954;SDS011;36966;48.064;-0.792;2023-02-28T15:00:29;3.63;;;1.40;;
50954;SDS011;36966;48.064;-0.792;2023-02-28T15:02:50;1.67;;;0.70;;
50954;SDS011;36966;48.064;-0.792;2023-02-28T15:07:36;2.95;;;1.15;;
50954;SDS011;36966;48.064;-0.792;2023-02-28T15:12:34;1.48;;;0.82;;
50954;SDS011;36966;48.064;-0.792;2023-02-28T15:14:55;2.97;;;1.85;;
50954;SDS011;36966;48.064;-0.792;2023-02-28T15:17:17;3.10;;;1.30;;
50954;SDS011;36966;48.064;-0.792;2023-02-28T15:19:41;3.70;;;1.58;;
50954;SDS011;36966;48.064;-0.792;2023-02-28T15:22:12;2.08;;;1.33;;
50954;SDS011;36966;48.064;-0.792;2023-02-28T15:27:03;6.75;;;2.67;;
50954;SDS011;36966;48.064;-0.792;2023-02-28T15:29:26;4.30;;;1.95;;
50954;SDS011;36966;48.064;-0.792;2023-02-28T15:31:48;5.50;;;2.45;;
50954;SDS011;36966;48.064;-0.792;2023-02-28T15:37:00;5.10;;;1.98;;
50954;SDS011;36966;48.064;-0.792;2023-02-28T15:39:23;5.60;;;2.42;;
50954;SDS011;36966;48.064;-0.792;2023-02-28T15:41:45;4.50;;;2.72;;
50954;SDS011;36966;48.064;-0.792;2023-02-28T15:44:22;3.97;;;2.55;;
50954;SDS011;36966;48.064;-0.792;2023-02-28T15:49:21;7.43;;;2.97;;
50954;SDS011;36966;48.064;-0.792;2023-02-28T15:51:42;6.32;;;2.03;;
50954;SDS011;36966;48.064;-0.792;2023-02-28T15:54:03;6.05;;;2.10;;
50954;SDS011;36966;48.064;-0.792;2023-02-28T15:56:33;5.70;;;2.38;;
50954;SDS011;36966;48.064;-0.792;2023-02-28T15:59:01;3.38;;;2.53;;
50954;SDS011;36966;48.064;-0.792;2023-02-28T16:01:24;4.43;;;2.28;;
50954;SDS011;36966;48.064;-0.792;2023-02-28T16:03:48;6.17;;;2.03;;
50954;SDS011;36966;48.064;-0.792;2023-02-28T16:08:41;5.93;;;2.97;;
50954;SDS011;36966;48.064;-0.792;2023-02-28T16:11:00;6.15;;;2.13;;
50954;SDS011;36966;48.064;-0.792;2023-02-28T16:13:19;4.05;;;2.42;;
50954;SDS011;36966;48.064;-0.792;2023-02-28T16:15:38;2.97;;;2.33;;
50954;SDS011;36966;48.064;-0.792;2023-02-28T16:18:02;4.78;;;2.28;;
50954;SDS011;36966;48.064;-0.792;2023-02-28T16:20:22;3.97;;;2.08;;
50954;SDS011;36966;48.064;-0.792;2023-02-28T16:22:49;3.70;;;2.00;;
50954;SDS011;36966;48.064;-0.792;2023-02-28T16:25:33;2.72;;;2.00;;
50954;SDS011;36966;48.064;-0.792;2023-02-28T16:27:55;2.63;;;2.13;;
50954;SDS011;36966;48.064;-0.792;2023-02-28T16:30:20;4.82;;;2.20;;
50954;SDS011;36966;48.064;-0.792;2023-02-28T16:32:41;4.18;;;2.33;;
50954;SDS011;36966;48.064;-0.792;2023-02-28T16:35:02;3.05;;;1.60;;